Time;durP1;ratioP1;P1;durP2;ratioP2;P2;SDS_P1;SDS_P2;PMS_P1;PMS_P2;Temp;Humidity;BMP_temperature;BMP_pressure;BME280_temperature;BME280_humidity;BME280_pressure;Samples;Min_cycle;Max_cycle;Signal;HPM_P1;HPM_P2
2023/12/04 00:01:48;;;;;;;11.15;7.03;;;3.20;99.90;;;;;;5092714;28;20070;-62
2023/12/04 00:04:14;;;;;;;11.95;7.10;;;3.20;99.90;;;;;;5076639;28;20308;-62
2023/12/04 00:06:43;;;;;;;11.35;6.88;;;3.40;99.90;;;;;;5076619;28;20033;-63
2023/12/04 00:09:09;;;;;;;11.68;6.85;;;3.40;99.90;;;;;;5059250;28;20430;-62
2023/12/04 00:11:34;;;;;;;10.05;6.30;;;3.40;99.90;;;;;;5092706;28;20033;-62
2023/12/04 00:14:00;;;;;;;10.50;6.60;;;3.40;99.90;;;;;;5075724;28;20396;-62
2023/12/04 00:16:27;;;;;;;13.70;7.57;;;3.40;99.90;;;;;;5076506;28;20249;-62
2023/12/04 00:18:52;;;;;;;9.18;6.35;;;3.60;99.90;;;;;;5076453;28;20298;-61
2023/12/04 00:21:18;;;;;;;11.80;6.65;;;3.50;99.90;;;;;;5076728;28;20056;-61
2023/12/04 00:23:44;;;;;;;12.27;7.13;;;3.60;99.90;;;;;;5075635;28;20113;-61
2023/12/04 00:26:10;;;;;;;13.95;7.90;;;3.50;99.90;;;;;;5076406;28;20045;-61
2023/12/04 00:28:37;;;;;;;17.30;8.70;;;3.50;99.90;;;;;;5094804;28;20423;-61
2023/12/04 00:31:02;;;;;;;14.73;8.65;;;3.60;99.90;;;;;;5062734;28;20033;-61
2023/12/04 00:33:28;;;;;;;19.73;10.25;;;3.60;99.90;;;;;;5079601;28;20047;-61
2023/12/04 00:35:54;;;;;;;19.88;10.25;;;3.50;99.90;;;;;;5096263;28;20040;-60
2023/12/04 00:38:20;;;;;;;22.63;11.32;;;3.60;99.90;;;;;;5080025;28;20429;-60
2023/12/04 00:40:46;;;;;;;23.45;11.43;;;3.70;99.90;;;;;;5079503;28;20044;-61
2023/12/04 00:43:11;;;;;;;22.10;10.48;;;3.60;99.90;;;;;;5079225;28;20113;-60
2023/12/04 00:45:37;;;;;;;19.60;10.57;;;3.60;99.90;;;;;;5079930;28;20033;-61
2023/12/04 00:48:03;;;;;;;20.80;10.63;;;3.60;99.90;;;;;;5096086;28;20039;-61
2023/12/04 00:50:29;;;;;;;22.02;11.25;;;3.60;99.90;;;;;;5079723;28;20299;-62
2023/12/04 00:52:55;;;;;;;23.83;10.88;;;3.60;99.90;;;;;;5079779;28;20032;-62
2023/12/04 00:55:21;;;;;;;24.48;11.85;;;3.60;99.90;;;;;;5078890;28;20123;-61
2023/12/04 00:57:46;;;;;;;23.65;12.00;;;3.60;99.90;;;;;;5095901;28;20281;-62
2023/12/04 01:00:13;;;;;;;24.42;11.57;;;3.60;99.90;;;;;;5078917;28;20063;-61
2023/12/04 01:02:40;;;;;;;22.75;10.95;;;3.50;99.90;;;;;;5078906;28;20028;-62
2023/12/04 01:05:06;;;;;;;20.23;10.52;;;3.50;99.90;;;;;;5079594;28;20100;-62
2023/12/04 01:07:32;;;;;;;20.20;10.20;;;3.40;99.90;;;;;;5079495;28;20029;-61
2023/12/04 01:09:57;;;;;;;20.40;10.43;;;3.30;97.90;;;;;;5062010;28;20375;-62
2023/12/04 01:12:23;;;;;;;17.63;9.27;;;3.30;99.90;;;;;;5078658;28;20295;-61
2023/12/04 01:14:49;;;;;;;19.45;9.88;;;3.30;99.90;;;;;;5078639;28;20415;-62
2023/12/04 01:17:15;;;;;;;18.92;9.15;;;3.30;99.90;;;;;;5095418;28;20036;-61
2023/12/04 01:19:41;;;;;;;16.42;8.98;;;3.30;96.20;;;;;;5078641;28;20043;-61
2023/12/04 01:22:07;;;;;;;17.52;9.10;;;3.20;93.60;;;;;;5078448;28;20028;-61
2023/12/04 01:24:32;;;;;;;17.83;8.95;;;3.30;96.50;;;;;;5078445;28;20036;-62
2023/12/04 01:26:59;;;;;;;17.55;9.13;;;3.30;95.50;;;;;;5078559;28;20462;-62
2023/12/04 01:29:24;;;;;;;18.83;9.35;;;3.30;98.40;;;;;;5078245;28;20056;-62
2023/12/04 01:31:50;;;;;;;16.10;9.27;;;3.20;90.50;;;;;;5079001;28;20033;-62
2023/12/04 01:34:16;;;;;;;16.17;8.70;;;3.20;90.80;;;;;;5078956;28;20027;-62
2023/12/04 01:36:42;;;;;;;17.15;8.77;;;3.20;92.50;;;;;;5078207;28;20036;-62
2023/12/04 01:39:08;;;;;;;17.10;8.68;;;3.20;96.30;;;;;;5078420;28;20044;-62
2023/12/04 01:41:34;;;;;;;21.08;9.00;;;3.30;91.00;;;;;;5078204;28;20407;-62
2023/12/04 01:44:00;;;;;;;16.92;8.60;;;3.40;92.20;;;;;;5094889;28;20033;-62
2023/12/04 01:46:25;;;;;;;16.15;8.52;;;3.40;88.80;;;;;;5078777;28;20036;-62
2023/12/04 01:48:53;;;;;;;15.25;7.70;;;3.50;79.40;;;;;;5078612;28;20032;-62
2023/12/04 01:51:20;;;;;;;16.27;8.15;;;3.40;72.40;;;;;;5094640;28;20288;-62
2023/12/04 01:53:47;;;;;;;16.83;8.10;;;3.40;84.50;;;;;;5077885;28;20302;-62
2023/12/04 01:56:14;;;;;;;15.77;8.18;;;3.50;83.60;;;;;;5094529;28;20064;-61
2023/12/04 01:58:40;;;;;;;14.90;7.93;;;3.40;59.40;;;;;;5077705;28;20273;-62
2023/12/04 02:01:06;;;;;;;14.30;7.20;;;3.30;68.80;;;;;;5078384;28;20093;-62
2023/12/04 02:03:33;;;;;;;13.65;7.53;;;3.30;67.90;;;;;;5077604;28;20032;-62
2023/12/04 02:06:00;;;;;;;15.18;7.88;;;3.20;65.00;;;;;;5078283;28;20027;-62
2023/12/04 02:08:26;;;;;;;11.63;6.57;;;3.20;69.50;;;;;;5078488;28;20028;-62
2023/12/04 02:10:52;;;;;;;17.08;8.10;;;3.20;63.30;;;;;;5077408;28;20036;-62
2023/12/04 02:13:18;;;;;;;13.90;7.90;;;3.10;67.50;;;;;;5078435;28;20047;-62
2023/12/04 02:15:46;;;;;;;14.02;7.65;;;3.20;75.80;;;;;;5094244;28;20035;-62
2023/12/04 02:18:13;;;;;;;13.40;7.30;;;3.20;69.50;;;;;;5078099;28;20119;-62
2023/12/04 02:20:38;;;;;;;15.23;7.60;;;3.20;53.80;;;;;;5077220;28;20396;-61
2023/12/04 02:23:05;;;;;;;14.07;7.43;;;3.20;28.90;;;;;;5077233;28;20102;-61
2023/12/04 02:25:31;;;;;;;14.43;7.43;;;3.20;1.00;;;;;;5077935;28;20028;-62
2023/12/04 02:28:01;;;;;;;13.95;6.40;;;3.20;1.00;;;;;;5077054;28;20099;-62
2023/12/04 02:30:29;;;;;;;10.77;5.93;;;3.10;1.00;;;;;;5060347;28;20039;-61
2023/12/04 02:32:58;;;;;;;11.32;6.15;;;2.90;1.00;;;;;;5077789;28;20027;-61
2023/12/04 02:35:29;;;;;;;9.10;5.10;;;3.00;1.00;;;;;;5077237;28;20024;-62
2023/12/04 02:37:58;;;;;;;9.05;5.53;;;3.00;1.00;;;;;;5077104;28;20047;-61
2023/12/04 02:40:25;;;;;;;7.43;4.60;;;3.00;1.00;;;;;;5060289;28;20368;-61
2023/12/04 02:42:51;;;;;;;9.82;4.95;;;3.00;1.00;;;;;;5076953;28;20067;-62
2023/12/04 02:45:16;;;;;;;8.32;4.88;;;3.00;1.00;;;;;;5093682;28;20064;-62
2023/12/04 02:47:42;;;;;;;8.88;5.55;;;3.10;1.00;;;;;;5093815;28;20414;-61
2023/12/04 02:50:08;;;;;;;8.63;5.35;;;3.20;1.00;;;;;;5091825;28;20040;-62
2023/12/04 02:52:34;;;;;;;9.23;4.90;;;3.10;1.00;;;;;;5075995;28;20047;-61
2023/12/04 02:54:59;;;;;;;8.93;4.97;;;3.10;1.00;;;;;;5074940;28;20081;-62
2023/12/04 02:57:25;;;;;;;11.23;5.82;;;3.10;1.00;;;;;;5075148;28;20403;-62
2023/12/04 02:59:51;;;;;;;10.18;5.38;;;3.20;1.00;;;;;;5075958;28;20033;-62
2023/12/04 03:02:17;;;;;;;13.90;6.50;;;3.20;1.00;;;;;;5075046;28;20055;-62
2023/12/04 03:04:43;;;;;;;13.93;7.07;;;3.20;1.00;;;;;;5074949;28;20344;-61
2023/12/04 03:07:08;;;;;;;16.50;8.10;;;3.40;1.00;;;;;;5075108;28;20040;-60
2023/12/04 03:09:34;;;;;;;14.70;7.32;;;3.40;1.00;;;;;;5075608;28;20036;-61
2023/12/04 03:12:00;;;;;;;11.52;6.72;;;3.40;1.00;;;;;;5075603;28;20039;-60
2023/12/04 03:14:26;;;;;;;14.23;7.47;;;3.50;1.00;;;;;;5075716;28;20380;-60
2023/12/04 03:16:51;;;;;;;12.82;7.03;;;3.50;1.00;;;;;;5074763;28;20064;-61
2023/12/04 03:19:17;;;;;;;13.63;7.28;;;3.50;1.00;;;;;;5074936;28;20162;-61
2023/12/04 03:21:43;;;;;;;12.55;6.97;;;3.50;1.00;;;;;;5091610;28;20105;-62
2023/12/04 03:24:09;;;;;;;15.23;7.38;;;3.50;1.00;;;;;;5074684;28;20047;-61
2023/12/04 03:26:35;;;;;;;14.23;7.85;;;3.50;1.00;;;;;;5074943;28;20036;-61
2023/12/04 03:29:01;;;;;;;9.52;6.07;;;3.60;1.00;;;;;;5091327;28;20408;-61
2023/12/04 03:31:28;;;;;;;11.00;6.13;;;3.70;1.00;;;;;;5057961;28;20065;-61
2023/12/04 03:33:54;;;;;;;9.02;5.70;;;3.70;1.00;;;;;;5074716;28;20048;-61
2023/12/04 03:36:19;;;;;;;7.72;4.55;;;3.60;1.00;;;;;;5076195;28;20331;-61
2023/12/04 03:38:45;;;;;;;8.23;4.65;;;3.60;1.00;;;;;;5076916;28;20319;-61
2023/12/04 03:41:15;;;;;;;7.00;4.60;;;3.60;1.00;;;;;;5076825;28;20025;-60
2023/12/04 03:43:41;;;;;;;7.20;4.70;;;3.50;1.00;;;;;;5076866;28;20051;-61
2023/12/04 03:46:07;;;;;;;6.70;4.13;;;3.60;1.00;;;;;;5076752;28;20020;-62
2023/12/04 03:48:33;;;;;;;8.57;4.65;;;3.70;1.00;;;;;;5059306;28;20332;-61
2023/12/04 03:50:59;;;;;;;5.57;4.22;;;3.60;1.00;;;;;;5075934;28;20123;-60
2023/12/04 03:53:26;;;;;;;8.63;4.60;;;3.60;1.00;;;;;;5092981;28;20111;-61
2023/12/04 03:55:52;;;;;;;6.43;4.03;;;3.60;1.00;;;;;;5092675;28;20392;-62
2023/12/04 03:58:18;;;;;;;6.18;4.15;;;3.60;1.00;;;;;;5092746;28;20068;-61
2023/12/04 04:00:43;;;;;;;6.97;4.45;;;3.60;1.00;;;;;;5076758;28;20392;-61
2023/12/04 04:03:10;;;;;;;7.05;4.38;;;3.60;1.00;;;;;;5062869;28;20036;-61
2023/12/04 04:05:36;;;;;;;5.57;3.97;;;3.50;1.00;;;;;;5080057;28;20315;-61
2023/12/04 04:08:02;;;;;;;6.82;4.40;;;3.50;1.00;;;;;;5080642;28;20036;-61
2023/12/04 04:10:28;;;;;;;7.50;4.70;;;3.40;1.00;;;;;;5080569;28;20097;-61
2023/12/04 04:12:54;;;;;;;6.80;4.22;;;3.50;1.00;;;;;;5079755;28;20044;-61
2023/12/04 04:15:19;;;;;;;7.35;4.57;;;3.40;1.00;;;;;;5079735;28;20043;-62
2023/12/04 04:17:45;;;;;;;9.35;5.32;;;3.40;1.00;;;;;;5096582;28;20425;-62
2023/12/04 04:20:12;;;;;;;8.93;4.72;;;3.50;1.00;;;;;;5096550;28;20112;-62
2023/12/04 04:22:39;;;;;;;7.88;4.40;;;3.50;1.00;;;;;;5080389;28;20033;-63
2023/12/04 04:25:08;;;;;;;7.28;4.47;;;3.50;1.00;;;;;;5079696;28;20351;-62
2023/12/04 04:27:34;;;;;;;6.72;4.38;;;3.60;1.00;;;;;;5080227;28;20292;-62
2023/12/04 04:30:01;;;;;;;7.13;4.38;;;3.60;1.00;;;;;;5079467;28;20032;-62
2023/12/04 04:32:26;;;;;;;6.43;4.32;;;3.60;1.00;;;;;;5079352;28;20052;-62
2023/12/04 04:34:52;;;;;;;8.40;4.55;;;3.60;1.00;;;;;;5079443;28;20060;-62
2023/12/04 04:37:19;;;;;;;6.53;4.30;;;3.50;1.00;;;;;;5079998;28;20044;-63
2023/12/04 04:39:45;;;;;;;7.20;4.63;;;3.50;1.00;;;;;;5080073;28;20115;-62
2023/12/04 04:42:11;;;;;;;7.00;4.28;;;3.50;1.00;;;;;;5079863;28;20041;-62
2023/12/04 04:44:37;;;;;;;7.05;3.70;;;3.60;1.00;;;;;;5062477;28;20093;-62
2023/12/04 04:47:03;;;;;;;6.03;4.15;;;3.60;1.00;;;;;;5080081;28;20346;-61
2023/12/04 04:49:29;;;;;;;6.97;4.07;;;3.60;1.00;;;;;;5096385;28;20040;-62
2023/12/04 04:51:54;;;;;;;7.55;4.72;;;3.70;1.00;;;;;;5078962;28;20027;-62
2023/12/04 04:54:20;;;;;;;5.85;4.00;;;3.60;1.00;;;;;;5079694;28;20292;-62
2023/12/04 04:56:46;;;;;;;6.80;4.53;;;3.60;1.00;;;;;;5095829;28;20383;-63
2023/12/04 04:59:12;;;;;;;6.10;4.10;;;3.60;1.00;;;;;;5078991;28;20418;-62
2023/12/04 05:01:38;;;;;;;6.57;4.18;;;3.60;1.00;;;;;;5095778;28;20028;-62
2023/12/04 05:04:03;;;;;;;5.85;4.00;;;3.70;1.00;;;;;;5095605;28;20063;-62
2023/12/04 05:06:30;;;;;;;6.53;4.20;;;3.80;1.00;;;;;;5079461;28;20102;-62
2023/12/04 05:08:56;;;;;;;7.57;4.22;;;3.80;1.00;;;;;;5079380;28;20047;-62
2023/12/04 05:11:22;;;;;;;5.50;3.78;;;3.70;1.00;;;;;;5079769;28;20399;-62
2023/12/04 05:13:47;;;;;;;6.70;4.35;;;3.70;1.00;;;;;;5094689;28;20040;-62
2023/12/04 05:16:13;;;;;;;5.28;3.72;;;3.80;1.00;;;;;;5078640;28;20113;-62
2023/12/04 05:18:39;;;;;;;7.93;4.30;;;3.90;1.00;;;;;;5079363;28;20276;-62
2023/12/04 05:21:09;;;;;;;6.82;4.00;;;3.90;1.00;;;;;;5078642;28;20039;-62
2023/12/04 05:23:39;;;;;;;5.40;4.10;;;3.90;1.00;;;;;;5095288;28;20029;-62
2023/12/04 05:26:06;;;;;;;6.50;4.18;;;4.00;1.00;;;;;;5061785;28;20115;-63
2023/12/04 05:28:32;;;;;;;6.80;4.43;;;3.90;1.00;;;;;;5078234;28;20136;-62
2023/12/04 05:30:58;;;;;;;6.05;4.10;;;3.90;1.00;;;;;;5078630;28;20455;-62
2023/12/04 05:33:24;;;;;;;6.18;4.28;;;3.90;1.00;;;;;;5061586;28;20029;-62
2023/12/04 05:35:51;;;;;;;8.18;4.43;;;4.00;1.00;;;;;;5078217;28;20024;-62
2023/12/04 05:38:17;;;;;;;6.57;3.95;;;4.00;1.00;;;;;;5078155;28;20045;-62
2023/12/04 05:40:43;;;;;;;6.50;4.40;;;4.00;1.00;;;;;;5078873;28;20315;-62
2023/12/04 05:43:09;;;;;;;6.15;4.05;;;3.90;1.00;;;;;;5077562;28;20041;-63
2023/12/04 05:45:35;;;;;;;6.05;3.85;;;3.90;1.00;;;;;;5077757;28;20021;-63
2023/12/04 05:48:01;;;;;;;7.40;4.15;;;4.00;1.00;;;;;;5077875;28;20033;-62
2023/12/04 05:50:27;;;;;;;5.72;4.13;;;4.00;1.00;;;;;;5078159;28;20082;-62
2023/12/04 05:52:53;;;;;;;5.05;3.45;;;4.00;1.00;;;;;;5077886;28;20040;-62
2023/12/04 05:55:20;;;;;;;6.65;4.00;;;4.00;1.00;;;;;;5078601;28;20380;-62
2023/12/04 05:57:46;;;;;;;7.07;4.47;;;4.10;1.00;;;;;;5077656;28;20327;-62
2023/12/04 06:00:13;;;;;;;6.05;4.20;;;4.00;1.00;;;;;;5078458;28;20123;-62
2023/12/04 06:02:39;;;;;;;6.00;4.25;;;3.90;1.00;;;;;;5077493;28;20097;-62
2023/12/04 06:05:09;;;;;;;6.35;4.10;;;3.90;1.00;;;;;;5077661;28;20060;-62
2023/12/04 06:07:38;;;;;;;6.15;4.28;;;4.00;1.00;;;;;;5078396;28;20295;-63
2023/12/04 06:10:04;;;;;;;5.07;3.85;;;4.00;1.00;;;;;;5078472;28;20039;-63
2023/12/04 06:12:30;;;;;;;7.18;4.53;;;4.00;1.00;;;;;;5077467;28;20039;-63
2023/12/04 06:14:58;;;;;;;5.65;3.83;;;4.10;1.00;;;;;;5078084;28;20395;-63
2023/12/04 06:17:24;;;;;;;9.10;4.68;;;4.00;1.00;;;;;;5077622;28;20037;-63
2023/12/04 06:19:50;;;;;;;5.72;4.00;;;4.00;1.00;;;;;;5078105;28;20029;-62
2023/12/04 06:22:19;;;;;;;7.63;4.68;;;4.00;1.00;;;;;;5077974;28;20048;-63
2023/12/04 06:24:46;;;;;;;6.40;4.05;;;4.00;1.00;;;;;;5093808;28;20029;-63
2023/12/04 06:27:16;;;;;;;6.68;3.97;;;3.90;1.00;;;;;;5076851;28;20311;-64
2023/12/04 06:29:43;;;;;;;5.88;3.95;;;3.90;1.00;;;;;;5060291;28;20040;-63
2023/12/04 06:32:10;;;;;;;7.68;4.30;;;4.00;1.00;;;;;;5060403;28;20354;-63
2023/12/04 06:34:36;;;;;;;5.32;4.03;;;4.00;1.00;;;;;;5076984;28;20108;-63
2023/12/04 06:37:03;;;;;;;6.13;3.95;;;4.10;1.00;;;;;;5077722;28;20116;-63
2023/12/04 06:39:32;;;;;;;6.15;3.90;;;4.10;1.00;;;;;;5077843;28;20064;-63
2023/12/04 06:41:59;;;;;;;5.57;3.65;;;3.90;1.00;;;;;;5077568;28;20042;-63
2023/12/04 06:44:25;;;;;;;6.15;4.10;;;3.80;1.00;;;;;;5076844;28;20127;-62
2023/12/04 06:46:52;;;;;;;7.30;4.43;;;3.80;1.00;;;;;;5076812;28;20299;-62
2023/12/04 06:49:18;;;;;;;5.28;3.70;;;3.80;1.00;;;;;;5076846;28;20052;-63
2023/12/04 06:51:44;;;;;;;6.32;3.63;;;3.80;1.00;;;;;;5076910;28;20040;-62
2023/12/04 06:54:11;;;;;;;5.60;3.88;;;3.70;1.00;;;;;;5077413;28;20024;-63
2023/12/04 06:56:38;;;;;;;4.95;3.50;;;3.90;1.00;;;;;;5093280;28;20039;-63
2023/12/04 06:59:04;;;;;;;5.13;3.40;;;3.80;1.00;;;;;;5077256;28;20040;-60
2023/12/04 07:01:29;;;;;;;6.32;3.70;;;3.80;1.00;;;;;;5093431;28;20036;-63
2023/12/04 07:03:55;;;;;;;5.53;3.90;;;3.90;1.00;;;;;;5076410;28;20028;-63
2023/12/04 07:06:21;;;;;;;4.53;3.35;;;3.80;1.00;;;;;;5076410;28;20033;-63
2023/12/04 07:08:47;;;;;;;6.28;3.80;;;3.70;1.00;;;;;;5093287;28;20074;-63
2023/12/04 07:11:14;;;;;;;5.28;3.33;;;3.80;1.00;;;;;;5076460;28;20312;-63
2023/12/04 07:13:43;;;;;;;5.20;3.60;;;3.90;1.00;;;;;;5059677;28;20472;-63
2023/12/04 07:16:09;;;;;;;7.22;3.78;;;3.90;1.00;;;;;;5076323;28;20419;-63
2023/12/04 07:18:35;;;;;;;5.75;3.40;;;3.90;1.00;;;;;;5076228;28;20034;-63
2023/12/04 07:21:01;;;;;;;5.93;3.88;;;3.80;1.00;;;;;;5076280;28;20028;-63
2023/12/04 07:23:26;;;;;;;4.40;3.45;;;3.90;1.00;;;;;;5077006;28;20033;-64
2023/12/04 07:25:52;;;;;;;6.55;4.00;;;4.00;1.00;;;;;;5076950;28;20036;-63
2023/12/04 07:28:19;;;;;;;4.70;3.13;;;3.80;1.00;;;;;;5076757;28;20087;-63
2023/12/04 07:30:45;;;;;;;4.57;3.15;;;3.70;1.00;;;;;;5059392;28;20032;-63
2023/12/04 07:33:11;;;;;;;5.13;3.50;;;3.80;1.00;;;;;;5076112;28;20131;-63
2023/12/04 07:35:36;;;;;;;4.95;3.67;;;3.80;1.00;;;;;;5076088;28;20301;-63
2023/12/04 07:38:03;;;;;;;5.32;3.55;;;3.90;1.00;;;;;;5076478;28;20033;-63
2023/12/04 07:40:28;;;;;;;5.15;3.80;;;3.90;1.00;;;;;;5092898;28;20040;-63
2023/12/04 07:42:54;;;;;;;5.63;4.00;;;4.00;1.00;;;;;;5075921;28;20037;-64
2023/12/04 07:45:21;;;;;;;11.20;4.70;;;4.00;1.00;;;;;;5076288;28;20357;-64
2023/12/04 07:47:46;;;;;;;8.90;4.68;;;4.20;1.00;;;;;;5076106;28;20059;-64
2023/12/04 07:50:12;;;;;;;7.95;4.47;;;4.20;1.00;;;;;;5075940;28;20024;-63
2023/12/04 07:52:38;;;;;;;8.07;4.72;;;4.10;1.00;;;;;;5092825;28;20033;-63
2023/12/04 07:55:04;;;;;;;5.05;3.75;;;4.00;1.00;;;;;;5076710;28;20058;-62
2023/12/04 07:57:30;;;;;;;6.45;4.00;;;4.10;1.00;;;;;;5076080;28;20039;-63
2023/12/04 07:59:56;;;;;;;5.82;3.88;;;4.00;1.00;;;;;;5075950;28;20029;-62
2023/12/04 08:02:21;;;;;;;4.82;3.38;;;3.90;1.00;;;;;;5076620;28;20036;-64
2023/12/04 08:04:47;;;;;;;5.20;3.35;;;4.10;1.00;;;;;;5075966;28;20115;-62
2023/12/04 08:07:13;;;;;;;4.90;3.90;;;4.20;1.00;;;;;;5076295;28;20050;-63
2023/12/04 08:09:39;;;;;;;5.70;3.65;;;4.20;1.00;;;;;;5075556;28;20154;-63
2023/12/04 08:12:05;;;;;;;5.20;3.75;;;4.20;1.00;;;;;;5076263;28;20318;-62
2023/12/04 08:14:32;;;;;;;6.35;3.60;;;4.30;1.00;;;;;;5075532;28;20035;-63
2023/12/04 08:16:58;;;;;;;4.43;3.50;;;4.30;1.00;;;;;;5092329;28;20062;-63
2023/12/04 08:19:24;;;;;;;5.20;3.55;;;4.40;1.00;;;;;;5092427;28;20059;-62
2023/12/04 08:21:50;;;;;;;4.40;3.20;;;4.50;1.00;;;;;;5058709;28;20116;-62
2023/12/04 08:24:18;;;;;;;5.38;3.90;;;4.50;1.00;;;;;;5075616;28;20071;-61
2023/12/04 08:26:45;;;;;;;4.10;3.10;;;4.50;1.00;;;;;;5075731;28;20048;-62
2023/12/04 08:29:11;;;;;;;5.32;3.42;;;4.30;1.00;;;;;;5075236;28;20069;-62
2023/12/04 08:31:37;;;;;;;5.70;3.60;;;4.20;1.00;;;;;;5058838;28;20067;-63
2023/12/04 08:34:03;;;;;;;6.40;4.00;;;4.20;1.00;;;;;;5075530;28;20094;-62
2023/12/04 08:36:29;;;;;;;5.63;3.70;;;4.30;1.00;;;;;;5075544;28;20036;-62
2023/12/04 08:38:54;;;;;;;6.03;3.78;;;4.40;1.00;;;;;;5076283;28;20028;-62
2023/12/04 08:41:20;;;;;;;6.00;3.72;;;4.40;1.00;;;;;;5076157;28;20089;-62
2023/12/04 08:43:46;;;;;;;5.65;3.80;;;4.40;1.00;;;;;;5092431;28;20021;-62
2023/12/04 08:46:13;;;;;;;5.53;4.00;;;4.40;1.00;;;;;;5076129;28;20029;-62
2023/12/04 08:48:40;;;;;;;7.30;4.05;;;4.40;1.00;;;;;;5077169;28;20036;-61
2023/12/04 08:51:08;;;;;;;6.60;4.25;;;4.40;1.00;;;;;;5079743;28;20040;-62
2023/12/04 08:53:34;;;;;;;9.18;3.95;;;4.50;1.00;;;;;;5095727;28;20032;-62
2023/12/04 08:56:00;;;;;;;6.60;4.10;;;4.50;1.00;;;;;;5095739;28;20102;-62
2023/12/04 08:58:26;;;;;;;6.05;4.30;;;4.50;1.00;;;;;;5078986;28;20040;-63
2023/12/04 09:00:52;;;;;;;5.88;3.78;;;4.40;1.00;;;;;;5078883;28;20128;-64
2023/12/04 09:03:19;;;;;;;4.60;3.70;;;4.50;1.00;;;;;;5079618;28;20037;-64
2023/12/04 09:05:44;;;;;;;4.90;3.65;;;4.70;1.00;;;;;;5078766;28;20025;-62
2023/12/04 09:08:10;;;;;;;6.97;4.18;;;4.70;1.00;;;;;;5079504;28;20157;-62
2023/12/04 09:10:36;;;;;;;5.90;3.85;;;4.70;1.00;;;;;;5078464;28;20044;-63
2023/12/04 09:13:02;;;;;;;6.53;4.30;;;4.60;1.00;;;;;;5061951;28;20307;-62
2023/12/04 09:15:28;;;;;;;7.50;5.22;;;4.50;1.00;;;;;;5078652;28;20028;-63
2023/12/04 09:17:54;;;;;;;6.18;4.60;;;4.50;1.00;;;;;;5078514;28;20049;-64
2023/12/04 09:20:19;;;;;;;6.95;6.20;;;4.50;1.00;;;;;;5078405;28;20044;-63
2023/12/04 09:22:45;;;;;;;6.43;4.93;;;4.60;1.00;;;;;;5079122;28;20033;-64
2023/12/04 09:25:11;;;;;;;6.63;4.90;;;4.60;1.00;;;;;;5095291;28;20040;-63
2023/12/04 09:27:37;;;;;;;5.97;4.65;;;4.70;1.00;;;;;;5078186;28;20427;-64
2023/12/04 09:30:04;;;;;;;5.95;4.32;;;4.80;1.00;;;;;;5095243;28;20040;-63
2023/12/04 09:32:30;;;;;;;6.65;4.60;;;4.80;1.00;;;;;;5078193;28;20135;-63
2023/12/04 09:34:56;;;;;;;14.38;9.65;;;5.00;1.00;;;;;;5095214;28;20110;-63
2023/12/04 09:37:21;;;;;;;7.75;5.50;;;5.00;1.00;;;;;;5078101;28;20036;-62
2023/12/04 09:39:49;;;;;;;5.50;4.35;;;5.00;1.00;;;;;;5095369;28;20048;-62
2023/12/04 09:42:18;;;;;;;5.57;3.83;;;4.80;1.00;;;;;;5078917;28;20036;-63
2023/12/04 09:44:45;;;;;;;9.10;4.95;;;5.00;1.00;;;;;;5078105;28;20451;-64
2023/12/04 09:47:11;;;;;;;8.32;5.45;;;4.90;1.00;;;;;;5078534;28;20311;-63
2023/12/04 09:49:39;;;;;;;8.43;5.10;;;5.00;1.00;;;;;;5077853;28;20395;-62
2023/12/04 09:52:05;;;;;;;7.43;4.55;;;4.80;1.00;;;;;;5078626;28;20320;-63
2023/12/04 09:54:32;;;;;;;8.30;4.00;;;4.70;1.00;;;;;;5077832;28;20363;-64
2023/12/04 09:56:58;;;;;;;9.15;4.72;;;4.70;1.00;;;;;;5077712;28;20040;-64
2023/12/04 09:59:25;;;;;;;6.28;4.80;;;4.70;1.00;;;;;;5094419;28;20040;-64
2023/12/04 10:01:51;;;;;;;6.95;6.10;;;4.80;1.00;;;;;;5078569;28;20082;-62
2023/12/04 10:04:17;;;;;;;6.10;4.80;;;4.90;1.00;;;;;;5077656;28;20047;-62
2023/12/04 10:06:45;;;;;;;6.35;5.35;;;4.80;1.00;;;;;;5094307;28;20314;-62
2023/12/04 10:09:11;;;;;;;5.10;4.25;;;4.80;1.00;;;;;;5078025;28;20064;-61
2023/12/04 10:11:41;;;;;;;9.00;5.03;;;4.80;1.00;;;;;;5077744;28;20033;-62
2023/12/04 10:14:17;;;;;;;6.72;4.75;;;4.90;1.00;;;;;;5078124;28;20024;-62
2023/12/04 10:16:44;;;;;;;5.60;4.03;;;4.70;19.20;;;;;;5078441;28;20028;-62
2023/12/04 10:19:30;;;;;;;6.50;5.05;;;4.80;26.20;;;;;;5078113;28;20037;-62
2023/12/04 10:22:02;;;;;;;4.90;4.03;;;4.70;15.80;;;;;;5077546;28;20024;-63
2023/12/04 10:24:38;;;;;;;8.38;5.38;;;4.60;37.10;;;;;;5077398;28;20272;-64
2023/12/04 10:27:06;;;;;;;7.63;4.75;;;4.40;49.10;;;;;;5077902;28;20033;-63
2023/12/04 10:29:47;;;;;;;7.88;5.28;;;4.30;66.10;;;;;;5076924;28;20049;-63
2023/12/04 10:32:13;;;;;;;7.40;4.50;;;4.30;84.90;;;;;;5077593;28;20359;-63
2023/12/04 10:34:42;;;;;;;6.28;4.20;;;4.30;74.30;;;;;;5077889;28;20172;-62
2023/12/04 10:37:10;;;;;;;5.95;4.60;;;4.50;86.30;;;;;;5076998;28;20472;-64
2023/12/04 10:40:08;;;;;;;7.50;4.85;;;4.60;86.20;;;;;;5077069;28;20369;-64
2023/12/04 10:42:34;;;;;;;6.15;4.40;;;4.90;80.90;;;;;;5069305;28;20048;-63
2023/12/04 10:45:00;;;;;;;7.53;4.53;;;5.00;56.00;;;;;;5076838;28;20048;-63
2023/12/04 10:47:32;;;;;;;5.60;4.57;;;4.90;64.10;;;;;;5076808;28;20308;-63
2023/12/04 10:49:59;;;;;;;9.68;5.18;;;4.90;83.50;;;;;;5060009;28;20037;-63
2023/12/04 10:52:24;;;;;;;6.47;4.43;;;4.80;75.70;;;;;;5076604;28;20036;-62
2023/12/04 10:54:51;;;;;;;7.45;4.50;;;4.70;85.50;;;;;;5076670;28;20411;-63
2023/12/04 10:57:28;;;;;;;26.65;16.40;;;4.80;93.70;;;;;;5076656;28;20032;-63
2023/12/04 11:00:02;;;;;;;16.25;11.10;;;4.80;81.20;;;;;;5077387;28;20427;-63
2023/12/04 11:02:32;;;;;;;6.97;5.53;;;4.90;87.50;;;;;;5076472;28;20210;-63
2023/12/04 11:05:13;;;;;;;8.18;5.07;;;5.00;85.40;;;;;;5077381;28;20040;-62
2023/12/04 11:07:44;;;;;;;7.88;5.72;;;4.90;84.50;;;;;;5077290;28;20032;-61
2023/12/04 11:10:11;;;;;;;7.68;6.53;;;5.20;90.70;;;;;;5076471;28;20032;-62
2023/12/04 11:12:43;;;;;;;9.10;5.25;;;5.20;67.10;;;;;;5075718;28;20040;-61
2023/12/04 11:15:12;;;;;;;5.90;4.30;;;5.20;62.70;;;;;;5076430;28;20036;-60
2023/12/04 11:17:39;;;;;;;8.32;5.63;;;5.10;79.20;;;;;;5077037;28;20409;-62
2023/12/04 11:20:13;;;;;;;6.07;4.38;;;5.20;73.20;;;;;;5076257;28;20040;-64
2023/12/04 11:22:40;;;;;;;5.80;4.60;;;5.00;81.80;;;;;;5077080;28;20448;-62
2023/12/04 11:25:07;;;;;;;6.90;5.40;;;4.60;95.60;;;;;;5076994;28;20045;-63
2023/12/04 11:27:35;;;;;;;6.78;5.20;;;4.50;99.50;;;;;;5075898;28;20426;-63
2023/12/04 11:30:03;;;;;;;9.10;5.40;;;4.60;99.90;;;;;;5059411;28;20427;-63
2023/12/04 11:32:29;;;;;;;6.97;5.07;;;4.60;99.90;;;;;;5092805;28;20033;-63
2023/12/04 11:34:59;;;;;;;6.82;5.22;;;4.60;99.90;;;;;;5076856;28;20028;-63
2023/12/04 11:37:26;;;;;;;6.85;5.13;;;4.70;99.90;;;;;;5076164;28;20086;-63
2023/12/04 11:39:53;;;;;;;7.30;5.28;;;4.70;99.90;;;;;;5076244;28;20452;-63
2023/12/04 11:42:23;;;;;;;76.55;32.95;;;4.60;99.90;;;;;;5076809;28;20039;-64
2023/12/04 11:44:55;;;;;;;15.07;9.45;;;4.50;99.90;;;;;;5076212;28;20315;-62
2023/12/04 11:47:21;;;;;;;9.13;7.20;;;4.40;99.90;;;;;;5076708;28;20028;-63
2023/12/04 11:49:47;;;;;;;9.82;5.70;;;4.30;99.90;;;;;;5076791;28;20024;-63
2023/12/04 11:52:13;;;;;;;7.28;4.90;;;4.10;99.90;;;;;;5076035;28;20086;-62
2023/12/04 11:55:06;;;;;;;9.35;5.97;;;4.20;99.90;;;;;;5076163;28;20085;-62
2023/12/04 11:57:39;;;;;;;8.40;6.25;;;4.30;99.90;;;;;;5076724;28;20459;-63
2023/12/04 12:00:21;;;;;;;10.45;5.80;;;4.40;99.90;;;;;;5076667;28;20085;-63
2023/12/04 12:02:54;;;;;;;11.43;8.15;;;4.40;99.90;;;;;;5076663;28;20306;-63
2023/12/04 12:05:20;;;;;;;10.20;6.72;;;4.40;99.90;;;;;;5075794;28;20391;-63
2023/12/04 12:07:47;;;;;;;9.65;6.05;;;4.50;99.90;;;;;;5076565;28;20021;-63
2023/12/04 12:10:13;;;;;;;10.05;5.80;;;4.50;99.90;;;;;;5076508;28;20032;-63
2023/12/04 12:12:40;;;;;;;10.95;7.78;;;4.70;99.90;;;;;;5076441;28;20120;-63
2023/12/04 12:15:10;;;;;;;7.38;5.78;;;4.70;99.90;;;;;;5092567;28;20029;-63
2023/12/04 12:17:41;;;;;;;13.05;8.77;;;4.70;99.90;;;;;;5075805;28;20045;-63
2023/12/04 12:20:08;;;;;;;7.50;6.03;;;4.80;99.90;;;;;;5075751;28;20066;-63
2023/12/04 12:22:36;;;;;;;8.75;5.35;;;4.80;99.90;;;;;;5076698;28;20092;-63
2023/12/04 12:25:07;;;;;;;8.52;6.03;;;4.70;99.90;;;;;;5080348;28;20277;-64
2023/12/04 12:27:33;;;;;;;9.40;5.78;;;4.80;99.90;;;;;;5079172;28;20071;-61
2023/12/04 12:29:59;;;;;;;9.00;6.50;;;4.80;99.10;;;;;;5079266;28;20449;-64
2023/12/04 12:32:26;;;;;;;10.05;6.57;;;4.60;99.90;;;;;;5096237;28;20038;-63
2023/12/04 12:34:51;;;;;;;12.77;8.38;;;4.60;99.90;;;;;;5080146;28;20024;-64
2023/12/04 12:37:17;;;;;;;27.40;14.60;;;4.50;99.90;;;;;;5080053;28;20040;-63
2023/12/04 12:39:43;;;;;;;63.65;35.45;;;4.60;99.90;;;;;;5096152;28;20071;-64
2023/12/04 12:42:09;;;;;;;10.23;6.68;;;4.70;99.90;;;;;;5079073;28;20043;-64
2023/12/04 12:44:42;;;;;;;11.13;7.95;;;4.70;97.40;;;;;;5079084;28;20119;-65
2023/12/04 12:47:08;;;;;;;9.80;6.65;;;4.70;99.90;;;;;;5079141;28;20044;-64
2023/12/04 12:49:35;;;;;;;13.88;8.82;;;4.70;99.90;;;;;;5079001;28;20102;-63
2023/12/04 12:52:02;;;;;;;17.75;10.82;;;4.70;97.30;;;;;;5079765;28;20047;-64
2023/12/04 12:54:32;;;;;;;9.20;6.38;;;4.70;99.90;;;;;;5078906;28;20017;-64
2023/12/04 12:56:59;;;;;;;8.15;5.45;;;4.70;99.90;;;;;;5080017;28;20020;-65
2023/12/04 12:59:26;;;;;;;7.78;5.57;;;4.80;96.80;;;;;;5078848;28;20027;-64